Ong, Nebraska
Current Conditions -  °F | °C
As of 8:55 PM on Friday 21 Nov 2014 (Local Time) from KHJH Reporting Station
Overcast Overcast  
Wind Chill: 36°   Ceiling: 700
Heat Index: 36°   Visibility: 7mi
Dew Point: 32°   Wind: 0mph
Humidity: 85%   Direction: NA
Pressure: 30.01"   Gusts: NA
Location:  40.4°N, 97.84°W
Report Text: KHJH 220255Z AUTO 00000KT 7SM OVC007 02/00 A3001 RMK AO2 T00230000
Loading
Personal Weather Stations






























Interactive Weather Map New forecast layout! Learn more

10-Day Weather Forecast

Advertisements
Track Severe Weather on mobile